createdAt,value
2017-08-11T00:00:04.149Z,0
2017-08-11T00:01:04.428Z,0
2017-08-11T00:02:04.405Z,0
2017-08-11T00:03:04.394Z,0
2017-08-11T00:04:04.360Z,0
2017-08-11T00:05:04.332Z,0
2017-08-11T00:06:04.308Z,0
2017-08-11T00:07:04.339Z,0
2017-08-11T00:08:03.969Z,0
2017-08-11T00:09:04.241Z,0
2017-08-11T00:10:03.924Z,0
2017-08-11T00:11:04.193Z,0
2017-08-11T00:12:03.880Z,0
2017-08-11T00:13:04.149Z,0
2017-08-11T00:14:04.135Z,0
2017-08-11T00:15:04.110Z,0
2017-08-11T00:16:04.081Z,0
2017-08-11T00:17:03.467Z,0
2017-08-11T00:18:03.742Z,0
2017-08-11T00:19:03.719Z,0
2017-08-11T00:20:03.999Z,0
2017-08-11T00:21:03.970Z,0
2017-08-11T00:22:03.658Z,0
2017-08-11T00:23:03.932Z,0
2017-08-11T00:24:03.905Z,0
2017-08-11T00:25:03.889Z,0
2017-08-11T00:26:03.564Z,0
2017-08-11T00:27:03.844Z,0
2017-08-11T00:28:03.844Z,0
2017-08-11T00:29:03.823Z,0
2017-08-11T00:30:03.769Z,0
2017-08-11T00:31:03.454Z,0
2017-08-11T00:32:03.444Z,0
2017-08-11T00:33:03.705Z,0
2017-08-11T00:34:03.683Z,0
2017-08-11T00:35:03.362Z,0
2017-08-11T00:36:03.653Z,0
2017-08-11T00:37:03.615Z,0
2017-08-11T00:38:03.595Z,0
2017-08-11T00:39:03.572Z,0
2017-08-11T00:40:03.555Z,0
2017-08-11T00:41:03.533Z,0
2017-08-11T00:42:03.505Z,0
2017-08-11T00:43:03.485Z,0
2017-08-11T00:44:03.462Z,0
2017-08-11T00:45:03.445Z,0
2017-08-11T00:46:03.142Z,0
2017-08-11T00:47:03.398Z,0
2017-08-11T00:48:03.080Z,0
2017-08-11T00:49:03.059Z,0
2017-08-11T00:50:03.327Z,0
2017-08-11T00:51:03.312Z,0
2017-08-11T00:52:03.282Z,0
2017-08-11T00:53:03.260Z,0
2017-08-11T00:54:03.236Z,0
2017-08-11T00:55:02.921Z,0
2017-08-11T00:56:02.896Z,0
2017-08-11T00:57:03.174Z,0
2017-08-11T00:58:03.153Z,0
2017-08-11T00:59:03.123Z,0
2017-08-11T01:00:03.117Z,0
2017-08-11T01:01:03.080Z,0
2017-08-11T01:02:03.062Z,0
2017-08-11T01:03:03.037Z,0
2017-08-11T01:04:03.021Z,0
2017-08-11T01:05:02.998Z,0
2017-08-11T01:06:02.968Z,0
2017-08-11T01:07:02.655Z,0
2017-08-11T01:08:02.631Z,0
2017-08-11T01:09:02.906Z,0
2017-08-11T01:10:02.887Z,0
2017-08-11T01:11:02.861Z,0
2017-08-11T01:12:02.834Z,0
2017-08-11T01:13:02.828Z,0
2017-08-11T01:14:02.793Z,0
2017-08-11T01:15:02.773Z,0
2017-08-11T01:16:02.457Z,0
2017-08-11T01:17:02.430Z,0
2017-08-11T01:18:02.109Z,0
2017-08-11T01:19:02.384Z,0
2017-08-11T01:20:02.678Z,0
2017-08-11T01:21:02.639Z,0
2017-08-11T01:22:02.616Z,0
2017-08-11T01:23:02.590Z,0
2017-08-11T01:24:02.272Z,0
2017-08-11T01:25:02.247Z,0
2017-08-11T01:26:02.529Z,0
2017-08-11T01:27:02.555Z,0
2017-08-11T01:28:02.478Z,0
2017-08-11T01:29:02.452Z,0
2017-08-11T01:30:02.134Z,0
2017-08-11T01:31:02.410Z,0
2017-08-11T01:32:02.392Z,0
2017-08-11T01:33:02.367Z,0
2017-08-11T01:34:02.342Z,0
2017-08-11T01:35:02.322Z,0
2017-08-11T01:36:02.006Z,0
2017-08-11T01:37:02.274Z,0
2017-08-11T01:38:02.255Z,0
2017-08-11T01:39:02.236Z,0
2017-08-11T01:40:01.910Z,0
2017-08-11T01:41:02.180Z,0
2017-08-11T01:42:02.160Z,0
2017-08-11T01:43:01.842Z,0
2017-08-11T01:44:02.115Z,0
2017-08-11T01:45:02.101Z,0
2017-08-11T01:46:02.069Z,0
2017-08-11T01:47:02.051Z,0
2017-08-11T01:48:02.025Z,0
2017-08-11T01:49:01.998Z,0
2017-08-11T01:50:01.982Z,0
2017-08-11T01:51:01.956Z,0
2017-08-11T01:52:01.932Z,0
2017-08-11T01:53:01.907Z,0
2017-08-11T01:54:01.592Z,0
2017-08-11T01:55:01.869Z,0
2017-08-11T01:56:01.539Z,0
2017-08-11T01:57:01.817Z,0
2017-08-11T01:58:01.798Z,0
2017-08-11T01:59:01.778Z,0
2017-08-11T02:00:01.479Z,0
2017-08-11T02:01:01.431Z,0
2017-08-11T02:02:01.707Z,0
2017-08-11T02:03:01.686Z,0
2017-08-11T02:04:01.662Z,0
2017-08-11T02:05:01.339Z,0
2017-08-11T02:06:01.610Z,0
2017-08-11T02:07:01.591Z,0
2017-08-11T02:08:01.570Z,0
2017-08-11T02:09:01.549Z,0
2017-08-11T02:10:01.221Z,0
2017-08-11T02:11:01.201Z,0
2017-08-11T02:12:01.188Z,0
2017-08-11T02:13:01.459Z,0
2017-08-11T02:14:01.133Z,0
2017-08-11T02:15:01.114Z,0
2017-08-11T02:16:01.086Z,0
2017-08-11T02:17:01.067Z,0
2017-08-11T02:18:01.042Z,0
2017-08-11T02:19:01.021Z,0
2017-08-11T02:20:01.301Z,0
2017-08-11T02:21:01.266Z,0
2017-08-11T02:22:01.252Z,0
2017-08-11T02:23:00.928Z,0
2017-08-11T02:24:01.231Z,0
2017-08-11T02:25:01.182Z,0
2017-08-11T02:26:01.157Z,0
2017-08-11T02:27:00.835Z,0
2017-08-11T02:28:00.810Z,0
2017-08-11T02:29:01.084Z,0
2017-08-11T02:30:01.067Z,0
2017-08-11T02:31:00.751Z,0
2017-08-11T02:32:01.021Z,0
2017-08-11T02:33:01.010Z,0
2017-08-11T02:34:00.972Z,0
2017-08-11T02:35:00.949Z,0
2017-08-11T02:36:00.926Z,0
2017-08-11T02:37:00.901Z,0
2017-08-11T02:38:00.877Z,0
2017-08-11T02:39:00.568Z,0
2017-08-11T02:40:00.833Z,0
2017-08-11T02:41:00.807Z,0
2017-08-11T02:42:00.486Z,0
2017-08-11T02:43:00.762Z,0
2017-08-11T02:44:00.767Z,0
2017-08-11T02:45:00.717Z,0
2017-08-11T02:46:00.694Z,0
2017-08-11T02:47:00.675Z,0
2017-08-11T02:48:00.662Z,0
2017-08-11T02:49:00.623Z,0
2017-08-11T02:50:00.603Z,0
2017-08-11T02:51:00.592Z,0
2017-08-11T02:52:00.259Z,0
2017-08-11T02:53:00.541Z,0
2017-08-11T02:54:00.506Z,0
2017-08-11T02:55:00.199Z,0
2017-08-11T02:56:00.466Z,0
2017-08-11T02:57:00.146Z,0
2017-08-11T02:58:00.417Z,0
2017-08-11T02:59:00.397Z,0
2017-08-11T03:00:00.371Z,0
2017-08-11T03:01:00.347Z,0
2017-08-11T03:02:00.334Z,0
2017-08-11T03:03:00.007Z,0
2017-08-11T03:04:00.277Z,0
2017-08-11T03:05:00.263Z,0
2017-08-11T03:06:00.238Z,0
2017-08-11T03:07:00.211Z,0
2017-08-11T03:08:00.184Z,0
2017-08-11T03:09:00.170Z,0
2017-08-11T03:10:00.143Z,0
2017-08-11T03:10:59.823Z,0
2017-08-11T03:11:59.798Z,0
2017-08-11T03:13:00.068Z,0
2017-08-11T03:14:00.045Z,0
2017-08-11T03:14:59.728Z,0
2017-08-11T03:15:59.730Z,0
2017-08-11T03:16:59.684Z,0
2017-08-11T03:17:59.951Z,0
2017-08-11T03:18:59.636Z,0
2017-08-11T03:19:59.617Z,0
2017-08-11T03:20:59.889Z,0
2017-08-11T03:21:59.867Z,0
2017-08-11T03:22:59.543Z,0
2017-08-11T03:23:59.817Z,0
2017-08-11T03:24:59.803Z,0
2017-08-11T03:25:59.785Z,0
2017-08-11T03:26:59.751Z,0
2017-08-11T03:27:59.724Z,0
2017-08-11T03:28:59.698Z,0
2017-08-11T03:29:59.380Z,0
2017-08-11T03:30:59.673Z,0
2017-08-11T03:31:59.638Z,0
2017-08-11T03:32:59.614Z,0
2017-08-11T03:33:59.587Z,0
2017-08-11T03:34:59.570Z,0
2017-08-11T03:35:59.545Z,0
2017-08-11T03:36:59.571Z,0
2017-08-11T03:37:59.196Z,0
2017-08-11T03:38:59.474Z,0
2017-08-11T03:39:59.153Z,0
2017-08-11T03:40:59.427Z,0
2017-08-11T03:41:59.412Z,0
2017-08-11T03:42:59.423Z,0
2017-08-11T03:43:59.357Z,4
2017-08-11T03:44:59.330Z,4
2017-08-11T03:45:59.314Z,4
2017-08-11T03:46:58.988Z,4
2017-08-11T03:47:59.266Z,8
2017-08-11T03:48:59.243Z,4
2017-08-11T03:49:58.920Z,8
2017-08-11T03:50:59.187Z,8
2017-08-11T03:51:59.170Z,8
2017-08-11T03:52:59.146Z,8
2017-08-11T03:53:59.122Z,8
2017-08-11T03:54:59.101Z,12
2017-08-11T03:55:59.072Z,8
2017-08-11T03:56:59.057Z,12
2017-08-11T03:57:59.029Z,12
2017-08-11T03:58:59.005Z,12
2017-08-11T03:59:58.421Z,16
2017-08-11T04:00:58.962Z,16
2017-08-11T04:01:58.644Z,20
2017-08-11T04:02:58.323Z,20
2017-08-11T04:03:58.896Z,24
2017-08-11T04:04:58.867Z,28
2017-08-11T04:05:58.844Z,28
2017-08-11T04:06:58.819Z,28
2017-08-11T04:07:58.796Z,32
2017-08-11T04:08:58.776Z,28
2017-08-11T04:09:58.758Z,40
2017-08-11T04:10:58.729Z,48
2017-08-11T04:11:58.703Z,48
2017-08-11T04:12:58.687Z,52
2017-08-11T04:13:58.663Z,72
2017-08-11T04:14:58.639Z,88
2017-08-11T04:15:58.612Z,96
2017-08-11T04:16:58.589Z,100
2017-08-11T04:17:58.578Z,96
2017-08-11T04:18:58.542Z,96
2017-08-11T04:19:58.220Z,128
2017-08-11T04:20:57.904Z,116
2017-08-11T04:21:58.474Z,104
2017-08-11T04:22:58.456Z,92
2017-08-11T04:23:58.427Z,100
2017-08-11T04:24:58.401Z,96
2017-08-11T04:25:58.383Z,100
2017-08-11T04:26:57.762Z,104
2017-08-11T04:27:58.334Z,96
2017-08-11T04:28:58.312Z,76
2017-08-11T04:29:58.291Z,92
2017-08-11T04:30:58.263Z,100
2017-08-11T04:31:58.240Z,92
2017-08-11T04:32:58.220Z,116
2017-08-11T04:33:57.903Z,180
2017-08-11T04:34:58.177Z,208
2017-08-11T04:35:58.208Z,248
2017-08-11T04:36:58.127Z,324
2017-08-11T04:37:58.114Z,348
2017-08-11T04:38:58.079Z,288
2017-08-11T04:39:58.059Z,248
2017-08-11T04:40:58.033Z,208
2017-08-11T04:41:58.014Z,156
2017-08-11T04:42:57.696Z,148
2017-08-11T04:43:57.968Z,156
2017-08-11T04:44:57.948Z,168
2017-08-11T04:45:57.921Z,176
2017-08-11T04:46:57.898Z,184
2017-08-11T04:47:57.906Z,192
2017-08-11T04:48:57.848Z,208
2017-08-11T04:49:57.825Z,216
2017-08-11T04:50:57.800Z,200
2017-08-11T04:51:57.777Z,192
2017-08-11T04:52:57.756Z,188
2017-08-11T04:53:57.438Z,192
2017-08-11T04:54:57.710Z,208
2017-08-11T04:55:57.690Z,224
2017-08-11T04:56:57.664Z,228
2017-08-11T04:57:57.643Z,220
2017-08-11T04:58:57.617Z,240
2017-08-11T04:59:57.303Z,228
2017-08-11T05:00:57.276Z,212
2017-08-11T05:01:57.547Z,216
2017-08-11T05:02:57.230Z,248
2017-08-11T05:03:57.209Z,264
2017-08-11T05:04:57.481Z,316
2017-08-11T05:05:57.461Z,360
2017-08-11T05:06:56.842Z,380
2017-08-11T05:07:57.409Z,364
2017-08-11T05:08:57.388Z,368
2017-08-11T05:09:57.364Z,376
2017-08-11T05:10:57.342Z,440
2017-08-11T05:11:57.326Z,516
2017-08-11T05:12:57.298Z,648
2017-08-11T05:13:56.981Z,736
2017-08-11T05:14:56.957Z,752
2017-08-11T05:15:57.226Z,728
2017-08-11T05:16:57.202Z,680
2017-08-11T05:17:57.185Z,708
2017-08-11T05:18:56.867Z,792
2017-08-11T05:19:57.162Z,752
2017-08-11T05:20:56.817Z,772
2017-08-11T05:21:56.788Z,888
2017-08-11T05:22:57.077Z,860
2017-08-11T05:23:57.051Z,932
2017-08-11T05:24:57.016Z,1044
2017-08-11T05:25:56.995Z,1148
2017-08-11T05:26:56.972Z,1136
2017-08-11T05:27:56.949Z,1240
2017-08-11T05:28:56.923Z,1256
2017-08-11T05:29:56.902Z,1308
2017-08-11T05:30:56.285Z,1444
2017-08-11T05:31:56.855Z,1552
2017-08-11T05:32:56.838Z,1600
2017-08-11T05:33:56.815Z,1652
2017-08-11T05:34:56.493Z,1660
2017-08-11T05:35:56.465Z,1692
2017-08-11T05:36:56.442Z,1792
2017-08-11T05:37:56.721Z,1916
2017-08-11T05:38:56.706Z,2020
2017-08-11T05:39:56.681Z,2116
2017-08-11T05:40:56.649Z,2248
2017-08-11T05:41:56.620Z,2356
2017-08-11T05:42:56.610Z,2472
2017-08-11T05:43:56.834Z,2548
2017-08-11T05:44:56.268Z,2616
2017-08-11T05:45:56.536Z,2732
2017-08-11T05:46:56.514Z,2880
2017-08-11T05:47:56.493Z,2952
2017-08-11T05:48:56.474Z,2948
2017-08-11T05:49:56.444Z,2920
2017-08-11T05:50:56.425Z,2960
2017-08-11T05:51:56.398Z,3200
2017-08-11T05:52:56.376Z,3372
2017-08-11T05:53:56.358Z,3648
2017-08-11T05:54:56.328Z,4236
2017-08-11T05:55:56.309Z,4916
2017-08-11T05:56:56.283Z,5024
2017-08-11T05:57:56.265Z,5328
2017-08-11T05:58:56.490Z,5268
2017-08-11T05:59:56.218Z,5124
2017-08-11T06:00:55.902Z,5072
2017-08-11T06:01:56.178Z,4896
2017-08-11T06:02:55.856Z,4812
2017-08-11T06:03:56.147Z,4788
2017-08-11T06:04:56.102Z,5096
2017-08-11T06:05:56.084Z,5560
2017-08-11T06:06:55.765Z,5600
2017-08-11T06:07:55.749Z,5536
2017-08-11T06:08:55.724Z,5384
2017-08-11T06:09:55.994Z,5152
2017-08-11T06:10:55.974Z,5012
2017-08-11T06:11:55.951Z,5004
2017-08-11T06:12:55.931Z,5008
2017-08-11T06:13:55.909Z,4960
2017-08-11T06:14:55.921Z,4920
2017-08-11T06:15:55.857Z,4912
2017-08-11T06:16:55.839Z,5152
2017-08-11T06:17:55.815Z,5608
2017-08-11T06:18:55.800Z,6256
2017-08-11T06:19:55.918Z,6956
2017-08-11T06:20:55.753Z,7640
2017-08-11T06:21:55.725Z,8356
2017-08-11T06:22:55.711Z,8976
2017-08-11T06:23:55.684Z,9312
2017-08-11T06:24:55.684Z,9320
2017-08-11T06:25:55.639Z,8764
2017-08-11T06:26:55.617Z,7848
2017-08-11T06:27:55.598Z,7168
2017-08-11T06:28:55.718Z,6608
2017-08-11T06:29:55.555Z,5880
2017-08-11T06:30:55.526Z,5168
2017-08-11T06:31:55.507Z,4552
2017-08-11T06:32:55.486Z,4060
2017-08-11T06:33:55.466Z,3788
2017-08-11T06:34:55.147Z,3704
2017-08-11T06:35:55.450Z,3696
2017-08-11T06:36:55.400Z,3716
2017-08-11T06:37:55.377Z,3688
2017-08-11T06:38:55.361Z,3760
2017-08-11T06:39:55.340Z,4060
2017-08-11T06:40:55.310Z,4408
2017-08-11T06:41:55.295Z,4804
2017-08-11T06:42:55.273Z,5068
2017-08-11T06:43:55.251Z,5376
2017-08-11T06:44:55.222Z,5544
2017-08-11T06:45:54.905Z,5772
2017-08-11T06:46:54.887Z,6640
2017-08-11T06:47:55.163Z,7852
2017-08-11T06:48:55.250Z,9620
2017-08-11T06:49:55.113Z,11116
2017-08-11T06:50:55.089Z,12140
2017-08-11T06:51:54.776Z,12700
2017-08-11T06:52:55.052Z,13048
2017-08-11T06:53:55.029Z,13352
2017-08-11T06:54:55.238Z,13692
2017-08-11T06:55:55.842Z,13820
2017-08-11T06:56:54.998Z,13564
2017-08-11T06:57:56.122Z,12896
2017-08-11T06:58:55.878Z,11912
2017-08-11T06:59:55.516Z,10864
2017-08-11T07:00:55.209Z,9896
2017-08-11T07:01:56.240Z,8880
2017-08-11T07:02:57.122Z,8012
2017-08-11T07:03:55.073Z,7396
2017-08-11T07:04:54.500Z,7056
2017-08-11T07:05:54.819Z,6760
2017-08-11T07:06:54.478Z,6308
2017-08-11T07:07:54.734Z,5592
2017-08-11T07:08:54.735Z,5252
2017-08-11T07:09:54.689Z,5512
2017-08-11T07:10:54.716Z,5912
2017-08-11T07:11:54.342Z,6180
2017-08-11T07:12:54.327Z,6212
2017-08-11T07:13:54.308Z,6044
2017-08-11T07:14:54.278Z,6652
2017-08-11T07:15:54.301Z,7340
2017-08-11T07:16:54.242Z,7316
2017-08-11T07:17:54.511Z,7092
2017-08-11T07:18:54.491Z,7888
2017-08-11T07:19:54.479Z,9216
2017-08-11T07:20:54.456Z,9568
2017-08-11T07:21:53.900Z,9152
2017-08-11T07:22:54.463Z,8224
2017-08-11T07:23:54.090Z,7208
2017-08-11T07:24:54.361Z,6776
2017-08-11T07:25:54.344Z,7096
2017-08-11T07:26:54.329Z,7480
2017-08-11T07:27:54.302Z,7312
2017-08-11T07:28:54.283Z,6496
2017-08-11T07:29:54.255Z,5596
2017-08-11T07:30:54.240Z,4892
2017-08-11T07:31:53.926Z,4528
2017-08-11T07:32:53.923Z,4640
2017-08-11T07:33:54.174Z,5292
2017-08-11T07:34:54.153Z,5864
2017-08-11T07:35:53.832Z,6200
2017-08-11T07:36:54.109Z,6508
2017-08-11T07:37:54.086Z,6920
2017-08-11T07:38:54.065Z,6972
2017-08-11T07:39:54.042Z,6636
2017-08-11T07:40:54.024Z,6496
2017-08-11T07:41:54.005Z,5772
2017-08-11T07:42:53.978Z,5344
2017-08-11T07:43:53.364Z,5900
2017-08-11T07:44:53.347Z,7044
2017-08-11T07:45:53.320Z,7948
2017-08-11T07:46:53.897Z,8768
2017-08-11T07:47:53.876Z,9732
2017-08-11T07:48:53.850Z,10320
2017-08-11T07:49:53.529Z,10412
2017-08-11T07:50:53.515Z,10332
2017-08-11T07:51:53.493Z,10604
2017-08-11T07:52:53.467Z,10824
2017-08-11T07:53:53.447Z,10452
2017-08-11T07:54:53.430Z,10064
2017-08-11T07:55:53.401Z,9388
2017-08-11T07:56:53.679Z,8328
2017-08-11T07:57:53.657Z,7332
2017-08-11T07:58:53.378Z,7108
2017-08-11T07:59:53.615Z,7372
2017-08-11T08:00:53.597Z,8384
2017-08-11T08:01:53.598Z,10112
2017-08-11T08:02:53.617Z,11736
2017-08-11T08:03:53.528Z,12908
2017-08-11T08:04:53.213Z,13792
2017-08-11T08:05:53.486Z,13720
2017-08-11T08:06:53.473Z,13416
2017-08-11T08:07:53.445Z,12688
2017-08-11T08:08:53.425Z,11916
2017-08-11T08:09:53.401Z,10968
2017-08-11T08:10:53.383Z,11108
2017-08-11T08:11:53.360Z,11608
2017-08-11T08:12:53.043Z,13540
2017-08-11T08:13:53.024Z,13860
2017-08-11T08:14:53.300Z,13452
2017-08-11T08:15:53.279Z,12520
2017-08-11T08:16:53.635Z,11836
2017-08-11T08:17:53.237Z,12452
2017-08-11T08:18:53.216Z,13088
2017-08-11T08:19:53.195Z,13768
2017-08-11T08:20:53.589Z,14084
2017-08-11T08:21:52.857Z,14340
2017-08-11T08:22:53.142Z,14520
2017-08-11T08:23:53.120Z,13844
2017-08-11T08:24:53.094Z,13200
2017-08-11T08:25:53.074Z,13040
2017-08-11T08:26:53.135Z,12780
2017-08-11T08:27:53.023Z,12564
2017-08-11T08:28:53.009Z,11708
2017-08-11T08:29:52.983Z,11384
2017-08-11T08:30:52.968Z,11564
2017-08-11T08:31:52.945Z,13048
2017-08-11T08:32:52.922Z,13220
2017-08-11T08:33:52.910Z,12480
2017-08-11T08:34:52.883Z,11936
2017-08-11T08:35:52.866Z,11000
2017-08-11T08:36:52.542Z,11472
2017-08-11T08:37:52.525Z,12684
2017-08-11T08:38:52.797Z,12688
2017-08-11T08:39:52.484Z,11964
2017-08-11T08:40:52.466Z,11592
2017-08-11T08:41:52.444Z,12832
2017-08-11T08:42:52.723Z,13280
2017-08-11T08:43:52.401Z,13412
2017-08-11T08:44:52.081Z,12772
2017-08-11T08:45:52.367Z,13448
2017-08-11T08:46:52.044Z,13368
2017-08-11T08:47:52.615Z,13788
2017-08-11T08:48:52.663Z,12812
2017-08-11T08:49:52.575Z,12200
2017-08-11T08:50:52.261Z,13816
2017-08-11T08:51:52.533Z,16488
2017-08-11T08:52:51.946Z,18720
2017-08-11T08:53:52.495Z,19808
2017-08-11T08:54:52.178Z,20384
2017-08-11T08:55:52.449Z,19936
2017-08-11T08:56:52.433Z,18912
2017-08-11T08:57:52.412Z,18048
2017-08-11T08:58:52.395Z,19520
2017-08-11T08:59:52.070Z,20480
2017-08-11T09:00:52.056Z,19936
2017-08-11T09:01:52.339Z,18976
2017-08-11T09:02:52.014Z,18784
2017-08-11T09:03:51.992Z,17420
2017-08-11T09:04:52.267Z,17236
2017-08-11T09:05:51.953Z,17584
2017-08-11T09:06:52.235Z,17232
2017-08-11T09:07:52.217Z,18016
2017-08-11T09:08:51.893Z,16600
2017-08-11T09:09:52.169Z,16716
2017-08-11T09:10:52.152Z,18464
2017-08-11T09:11:52.130Z,16940
2017-08-11T09:12:52.116Z,15584
2017-08-11T09:13:52.098Z,12952
2017-08-11T09:14:51.776Z,12484
2017-08-11T09:15:51.758Z,11608
2017-08-11T09:16:52.031Z,11868
2017-08-11T09:17:51.718Z,12412
2017-08-11T09:18:51.989Z,13116
2017-08-11T09:19:51.978Z,16396
2017-08-11T09:20:51.961Z,22784
2017-08-11T09:21:51.936Z,22432
2017-08-11T09:22:51.616Z,21152
2017-08-11T09:23:51.891Z,20640
2017-08-11T09:24:51.570Z,19744
2017-08-11T09:25:51.553Z,17260
2017-08-11T09:26:51.837Z,14516
2017-08-11T09:27:52.577Z,12888
2017-08-11T09:28:51.790Z,11516
2017-08-11T09:29:51.776Z,11300
2017-08-11T09:30:51.755Z,12272
2017-08-11T09:31:51.738Z,11148
2017-08-11T09:32:51.712Z,10236
2017-08-11T09:33:51.692Z,10220
2017-08-11T09:34:51.672Z,8736
2017-08-11T09:35:51.351Z,7460
2017-08-11T09:36:51.336Z,7012
2017-08-11T09:37:51.612Z,8872
2017-08-11T09:38:51.592Z,13396
2017-08-11T09:39:51.573Z,16216
2017-08-11T09:40:51.551Z,17364
2017-08-11T09:41:51.239Z,17828
2017-08-11T09:42:51.735Z,17436
2017-08-11T09:43:51.492Z,16252
2017-08-11T09:44:51.472Z,15360
2017-08-11T09:45:51.454Z,15180
2017-08-11T09:46:51.483Z,15700
2017-08-11T09:47:51.123Z,17284
2017-08-11T09:48:50.891Z,19616
2017-08-11T09:49:51.056Z,20544
2017-08-11T09:50:51.055Z,20384
2017-08-11T09:51:51.332Z,20384
2017-08-11T09:52:51.316Z,21312
2017-08-11T09:53:51.290Z,22848
2017-08-11T09:54:51.272Z,23520
2017-08-11T09:55:51.254Z,22528
2017-08-11T09:56:50.985Z,21696
2017-08-11T09:57:50.916Z,20928
2017-08-11T09:58:51.193Z,20224
2017-08-11T09:59:51.183Z,20672
2017-08-11T10:00:50.861Z,20352
2017-08-11T10:01:50.542Z,19552
2017-08-11T10:02:51.116Z,17920
2017-08-11T10:03:51.101Z,15848
2017-08-11T10:04:51.554Z,14320
2017-08-11T10:05:51.023Z,14576
2017-08-11T10:06:51.037Z,16728
2017-08-11T10:07:51.025Z,20096
2017-08-11T10:08:50.707Z,22496
2017-08-11T10:09:51.182Z,23008
2017-08-11T10:10:50.815Z,21760
2017-08-11T10:11:52.971Z,20352
2017-08-11T10:12:52.737Z,18016
2017-08-11T10:13:50.695Z,15920
2017-08-11T10:14:50.587Z,17080
2017-08-11T10:15:50.864Z,19840
2017-08-11T10:16:50.550Z,20672
2017-08-11T10:17:50.235Z,21376
2017-08-11T10:18:50.809Z,22784
2017-08-11T10:19:50.786Z,22528
2017-08-11T10:20:50.775Z,23168
2017-08-11T10:21:50.660Z,24672
2017-08-11T10:22:50.733Z,26048
2017-08-11T10:23:50.715Z,26496
2017-08-11T10:24:50.692Z,25856
2017-08-11T10:25:50.674Z,24736
2017-08-11T10:26:50.659Z,24320
2017-08-11T10:27:50.638Z,23872
2017-08-11T10:28:50.624Z,23072
2017-08-11T10:29:50.596Z,21344
2017-08-11T10:30:50.583Z,19488
2017-08-11T10:31:50.558Z,18624
2017-08-11T10:32:50.570Z,19296
2017-08-11T10:33:50.524Z,20864
2017-08-11T10:34:50.507Z,22752
2017-08-11T10:35:50.489Z,24160
2017-08-11T10:36:50.469Z,24864
2017-08-11T10:37:50.452Z,25312
2017-08-11T10:38:50.429Z,25344
2017-08-11T10:39:50.120Z,24768
2017-08-11T10:40:50.394Z,23168
2017-08-11T10:41:50.374Z,21536
2017-08-11T10:42:50.062Z,19904
2017-08-11T10:43:50.342Z,17280
2017-08-11T10:44:50.022Z,19104
2017-08-11T10:45:50.012Z,20832
2017-08-11T10:46:50.286Z,21472
2017-08-11T10:47:50.261Z,21696
2017-08-11T10:48:50.251Z,21632
2017-08-11T10:49:50.224Z,21504
2017-08-11T10:50:50.205Z,20960
2017-08-11T10:51:50.189Z,20672
2017-08-11T10:52:50.182Z,21568
2017-08-11T10:53:50.164Z,22848
2017-08-11T10:54:50.140Z,22624
2017-08-11T10:55:50.119Z,21056
2017-08-11T10:56:50.099Z,19168
2017-08-11T10:57:50.083Z,17172
2017-08-11T10:58:49.770Z,15828
2017-08-11T10:59:50.044Z,15024
2017-08-11T11:00:50.022Z,14776
2017-08-11T11:01:50.012Z,14712
2017-08-11T11:02:49.988Z,15264
2017-08-11T11:03:49.960Z,15684
2017-08-11T11:04:49.944Z,16444
2017-08-11T11:05:49.630Z,17052
2017-08-11T11:06:49.913Z,16484
2017-08-11T11:07:49.895Z,15232
2017-08-11T11:08:49.870Z,14180
2017-08-11T11:09:49.852Z,15256
2017-08-11T11:10:49.829Z,16368
2017-08-11T11:11:49.818Z,15044
2017-08-11T11:12:49.849Z,13336
2017-08-11T11:13:49.181Z,12620
2017-08-11T11:14:49.756Z,12496
2017-08-11T11:15:49.739Z,12460
2017-08-11T11:16:49.718Z,12120
2017-08-11T11:17:49.737Z,12920
2017-08-11T11:18:49.672Z,13308
2017-08-11T11:19:49.656Z,12748
2017-08-11T11:20:49.636Z,11996
2017-08-11T11:21:49.620Z,12640
2017-08-11T11:22:49.596Z,13436
2017-08-11T11:23:49.582Z,14596
2017-08-11T11:24:49.564Z,14980
2017-08-11T11:25:49.255Z,12940
2017-08-11T11:26:49.518Z,11012
2017-08-11T11:27:49.202Z,10976
2017-08-11T11:28:49.482Z,13056
2017-08-11T11:29:49.170Z,15980
2017-08-11T11:30:49.445Z,17300
2017-08-11T11:31:49.125Z,17660
2017-08-11T11:32:49.107Z,16712
2017-08-11T11:33:49.087Z,16868
2017-08-11T11:34:49.070Z,15044
2017-08-11T11:35:49.084Z,14044
2017-08-11T11:36:49.322Z,12196
2017-08-11T11:37:49.302Z,10584
2017-08-11T11:38:48.990Z,10244
2017-08-11T11:39:49.271Z,10708
2017-08-11T11:40:49.247Z,10444
2017-08-11T11:41:49.231Z,10148
2017-08-11T11:42:48.616Z,10284
2017-08-11T11:43:48.591Z,10416
2017-08-11T11:44:48.868Z,10312
2017-08-11T11:45:48.555Z,10096
2017-08-11T11:46:48.831Z,9920
2017-08-11T11:47:49.103Z,9648
2017-08-11T11:48:49.089Z,9480
2017-08-11T11:49:48.778Z,9428
2017-08-11T11:50:48.785Z,9148
2017-08-11T11:51:49.025Z,8708
2017-08-11T11:52:48.712Z,9012
2017-08-11T11:53:48.986Z,9356
2017-08-11T11:54:48.975Z,8972
2017-08-11T11:55:49.083Z,8236
2017-08-11T11:56:48.929Z,7420
2017-08-11T11:57:48.905Z,6860
2017-08-11T11:58:48.287Z,6528
2017-08-11T11:59:48.567Z,6140
2017-08-11T12:00:48.847Z,5840
2017-08-11T12:01:48.526Z,5700
2017-08-11T12:02:48.506Z,5604
2017-08-11T12:03:48.782Z,5676
2017-08-11T12:04:48.462Z,5840
2017-08-11T12:05:48.438Z,6076
2017-08-11T12:06:48.417Z,6428
2017-08-11T12:07:48.694Z,6824
2017-08-11T12:08:48.676Z,7092
2017-08-11T12:09:48.655Z,7184
2017-08-11T12:10:48.644Z,7220
2017-08-11T12:11:48.630Z,7380
2017-08-11T12:12:48.589Z,7452
2017-08-11T12:13:48.570Z,7484
2017-08-11T12:14:48.252Z,7396
2017-08-11T12:15:48.525Z,7036
2017-08-11T12:16:48.508Z,6452
2017-08-11T12:17:48.185Z,5876
2017-08-11T12:18:48.474Z,5712
2017-08-11T12:19:48.156Z,5956
2017-08-11T12:20:48.125Z,5548
2017-08-11T12:21:48.403Z,4892
2017-08-11T12:22:48.378Z,4724
2017-08-11T12:23:48.358Z,4744
2017-08-11T12:24:48.331Z,4948
2017-08-11T12:25:48.018Z,5160
2017-08-11T12:26:47.996Z,5436
2017-08-11T12:27:48.283Z,5612
2017-08-11T12:28:48.258Z,5428
2017-08-11T12:29:48.232Z,5116
2017-08-11T12:30:48.204Z,4628
2017-08-11T12:31:48.188Z,4492
2017-08-11T12:32:48.160Z,4792
2017-08-11T12:33:48.254Z,5116
2017-08-11T12:34:48.129Z,5184
2017-08-11T12:35:47.508Z,5196
2017-08-11T12:36:47.783Z,5384
2017-08-11T12:37:47.768Z,5764
2017-08-11T12:38:48.036Z,5948
2017-08-11T12:39:47.712Z,5848
2017-08-11T12:40:47.701Z,5484
2017-08-11T12:41:47.673Z,4984
2017-08-11T12:42:47.950Z,4692
2017-08-11T12:43:47.928Z,5088
2017-08-11T12:44:47.908Z,5852
2017-08-11T12:45:47.884Z,6420
2017-08-11T12:46:47.907Z,6400
2017-08-11T12:47:47.886Z,6344
2017-08-11T12:48:47.832Z,7148
2017-08-11T12:49:47.806Z,8060
2017-08-11T12:50:47.506Z,8500
2017-08-11T12:51:47.755Z,8872
2017-08-11T12:52:47.146Z,9264
2017-08-11T12:53:47.722Z,9368
2017-08-11T12:54:47.397Z,9264
2017-08-11T12:55:47.671Z,9044
2017-08-11T12:56:47.655Z,8824
2017-08-11T12:57:47.335Z,8676
2017-08-11T12:58:47.605Z,8580
2017-08-11T12:59:47.292Z,8388
2017-08-11T13:00:47.687Z,8436
2017-08-11T13:01:47.563Z,8396
2017-08-11T13:02:47.528Z,7692
2017-08-11T13:03:47.206Z,6668
2017-08-11T13:04:47.484Z,6344
2017-08-11T13:05:47.459Z,6228
2017-08-11T13:06:47.153Z,5988
2017-08-11T13:07:47.421Z,5636
2017-08-11T13:08:47.405Z,5360
2017-08-11T13:09:47.377Z,5272
2017-08-11T13:10:47.354Z,5356
2017-08-11T13:11:47.340Z,5332
2017-08-11T13:12:47.321Z,5268
2017-08-11T13:13:47.375Z,5264
2017-08-11T13:14:47.412Z,5268
2017-08-11T13:15:46.660Z,5200
2017-08-11T13:16:46.938Z,5132
2017-08-11T13:17:46.919Z,5064
2017-08-11T13:18:46.901Z,5096
2017-08-11T13:19:46.580Z,5188
2017-08-11T13:20:46.856Z,5404
2017-08-11T13:21:47.129Z,5880
2017-08-11T13:22:47.117Z,6768
2017-08-11T13:23:47.090Z,7912
2017-08-11T13:24:46.769Z,8760
2017-08-11T13:25:46.749Z,9292
2017-08-11T13:26:46.428Z,9584
2017-08-11T13:27:47.010Z,9660
2017-08-11T13:28:46.693Z,9468
2017-08-11T13:29:46.667Z,9304
2017-08-11T13:30:46.936Z,9424
2017-08-11T13:31:46.923Z,9580
2017-08-11T13:32:46.904Z,9484
2017-08-11T13:33:46.878Z,9228
2017-08-11T13:34:46.855Z,8908
2017-08-11T13:35:46.838Z,8672
2017-08-11T13:36:46.818Z,8700
2017-08-11T13:37:46.799Z,8980